createdAt,value
2022-08-03T00:01:36.721Z,9.18
2022-08-03T00:04:04.968Z,8.95
2022-08-03T00:06:36.775Z,10.00
2022-08-03T00:09:05.150Z,10.80
2022-08-03T00:11:32.004Z,12.30
2022-08-03T00:13:58.810Z,9.63
2022-08-03T00:16:26.503Z,9.70
2022-08-03T00:18:53.643Z,10.20
2022-08-03T00:21:20.393Z,8.93
2022-08-03T00:23:51.936Z,9.50
2022-08-03T00:26:21.120Z,9.80
2022-08-03T00:28:48.543Z,9.88
2022-08-03T00:31:15.451Z,8.77
2022-08-03T00:33:58.782Z,9.60
2022-08-03T00:36:27.453Z,9.38
2022-08-03T00:38:55.081Z,10.02
2022-08-03T00:41:22.132Z,8.52
2022-08-03T00:43:49.038Z,9.40
2022-08-03T00:46:20.786Z,9.70
2022-08-03T00:48:50.090Z,9.10
2022-08-03T00:51:17.132Z,9.15
2022-08-03T00:53:44.035Z,10.85
2022-08-03T00:56:14.625Z,10.43
2022-08-03T00:58:43.911Z,9.73
2022-08-03T01:01:12.476Z,8.23
2022-08-03T01:03:40.043Z,8.73
2022-08-03T01:06:19.043Z,9.02
2022-08-03T01:09:04.666Z,9.10
2022-08-03T01:12:00.287Z,9.23
2022-08-03T01:14:58.793Z,10.32
2022-08-03T01:18:06.077Z,10.55
2022-08-03T01:20:38.986Z,11.52
2022-08-03T01:23:29.061Z,11.82
2022-08-03T01:26:17.563Z,9.00
2022-08-03T01:29:21.637Z,8.48
2022-08-03T01:32:58.001Z,9.85
2022-08-03T01:34:55.515Z,9.75
2022-08-03T01:37:27.415Z,10.50
2022-08-03T01:39:58.484Z,9.35
2022-08-03T01:42:26.274Z,9.00
2022-08-03T01:44:55.864Z,9.75
2022-08-03T01:47:26.250Z,9.90
2022-08-03T01:49:54.599Z,9.43
2022-08-03T01:52:22.517Z,9.55
2022-08-03T01:54:51.715Z,9.65
2022-08-03T01:57:20.193Z,9.50
2022-08-03T01:59:49.829Z,8.63
2022-08-03T02:02:32.895Z,11.30
2022-08-03T02:05:03.519Z,10.23
2022-08-03T02:07:32.640Z,9.85
2022-08-03T02:10:01.326Z,10.05
2022-08-03T02:12:30.121Z,10.00
2022-08-03T02:14:57.893Z,9.77
2022-08-03T02:17:39.000Z,9.10
2022-08-03T02:20:08.796Z,9.30
2022-08-03T02:22:37.027Z,10.38
2022-08-03T02:25:04.087Z,10.65
2022-08-03T02:27:34.683Z,9.95
2022-08-03T02:30:10.637Z,10.00
2022-08-03T02:32:40.643Z,11.88
2022-08-03T02:35:13.405Z,11.60
2022-08-03T02:37:49.997Z,11.00
2022-08-03T02:40:19.270Z,9.95
2022-08-03T02:42:47.608Z,9.73
2022-08-03T02:45:17.054Z,10.48
2022-08-03T02:47:54.389Z,9.55
2022-08-03T02:50:23.286Z,9.48
2022-08-03T02:52:52.125Z,11.60
2022-08-03T02:55:21.374Z,8.77
2022-08-03T02:57:49.165Z,9.82
2022-08-03T03:00:19.678Z,10.40
2022-08-03T03:03:00.844Z,9.88
2022-08-03T03:05:53.146Z,10.13
2022-08-03T03:08:20.594Z,10.32
2022-08-03T03:10:53.171Z,10.65
2022-08-03T03:13:23.226Z,9.40
2022-08-03T03:15:51.077Z,10.60
2022-08-03T03:18:22.358Z,10.18
2022-08-03T03:20:51.777Z,9.18
2022-08-03T03:23:19.567Z,9.10
2022-08-03T03:25:47.000Z,10.43
2022-08-03T03:28:14.744Z,9.73
2022-08-03T03:30:42.063Z,10.57
2022-08-03T03:33:08.980Z,9.90
2022-08-03T03:35:37.212Z,10.75
2022-08-03T03:38:07.049Z,10.32
2022-08-03T03:40:36.044Z,10.10
2022-08-03T03:43:03.664Z,10.63
2022-08-03T03:45:31.457Z,9.63
2022-08-03T03:48:01.782Z,10.63
2022-08-03T03:50:30.235Z,10.23
2022-08-03T03:52:56.973Z,10.88
2022-08-03T03:55:24.026Z,11.32
2022-08-03T03:57:50.892Z,10.52
2022-08-03T04:00:19.325Z,11.35
2022-08-03T04:02:46.715Z,10.43
2022-08-03T04:05:34.100Z,11.00
2022-08-03T04:08:19.004Z,10.05
2022-08-03T04:11:27.460Z,10.48
2022-08-03T04:14:20.401Z,11.77
2022-08-03T04:16:52.009Z,11.30
2022-08-03T04:19:27.061Z,11.48
2022-08-03T04:22:00.458Z,10.02
2022-08-03T04:24:33.138Z,10.43
2022-08-03T04:27:02.941Z,10.55
2022-08-03T04:32:00.788Z,10.10
2022-08-03T04:34:29.897Z,11.55
2022-08-03T04:37:00.748Z,10.93
2022-08-03T04:39:31.335Z,11.05
2022-08-03T04:42:07.848Z,11.80
2022-08-03T04:44:42.952Z,9.00
2022-08-03T04:47:09.986Z,9.80
2022-08-03T04:49:38.542Z,10.65
2022-08-03T04:52:08.905Z,9.88
2022-08-03T04:54:48.843Z,10.27
2022-08-03T04:57:23.211Z,9.73
2022-08-03T05:00:02.594Z,10.88
2022-08-03T05:02:31.413Z,8.82
2022-08-03T05:04:58.721Z,9.85
2022-08-03T05:07:25.586Z,9.75
2022-08-03T05:09:57.540Z,9.75
2022-08-03T05:12:32.568Z,10.95
2022-08-03T05:15:00.540Z,11.10
2022-08-03T05:17:28.471Z,11.90
2022-08-03T05:19:55.880Z,10.13
2022-08-03T05:22:23.481Z,8.95
2022-08-03T05:24:50.427Z,9.35
2022-08-03T05:27:20.221Z,9.07
2022-08-03T05:32:14.543Z,9.48
2022-08-03T05:34:41.643Z,9.40
2022-08-03T05:37:09.586Z,8.80
2022-08-03T05:39:36.507Z,9.35
2022-08-03T05:42:03.458Z,9.07
2022-08-03T05:44:31.993Z,9.25
2022-08-03T05:46:59.543Z,8.80
2022-08-03T05:49:26.456Z,9.73
2022-08-03T05:52:07.974Z,9.13
2022-08-03T05:54:56.170Z,9.38
2022-08-03T05:57:25.447Z,9.65
2022-08-03T05:59:53.929Z,9.80
2022-08-03T06:02:26.165Z,9.43
2022-08-03T06:04:53.056Z,10.98
2022-08-03T06:07:19.885Z,10.13
2022-08-03T06:10:37.490Z,11.10
2022-08-03T06:12:36.328Z,9.45
2022-08-03T06:15:05.401Z,9.77
2022-08-03T06:17:37.359Z,10.05
2022-08-03T06:20:05.905Z,9.82
2022-08-03T06:22:32.649Z,10.45
2022-08-03T06:25:04.024Z,11.32
2022-08-03T06:27:37.306Z,11.48
2022-08-03T06:30:05.495Z,11.13
2022-08-03T06:32:32.503Z,11.23
2022-08-03T06:34:59.772Z,10.75
2022-08-03T06:37:27.282Z,12.13
2022-08-03T06:39:54.480Z,11.30
2022-08-03T06:42:22.677Z,12.20
2022-08-03T06:44:49.789Z,11.00
2022-08-03T06:47:16.607Z,11.80
2022-08-03T06:49:43.724Z,10.27
2022-08-03T06:52:38.083Z,11.80
2022-08-03T06:55:06.226Z,13.82
2022-08-03T06:57:33.397Z,14.20
2022-08-03T07:00:09.789Z,13.27
2022-08-03T07:02:38.733Z,14.70
2022-08-03T07:05:06.356Z,14.52
2022-08-03T07:07:33.138Z,13.43
2022-08-03T07:09:59.998Z,13.20
2022-08-03T07:12:30.106Z,14.20
2022-08-03T07:15:01.371Z,14.30
2022-08-03T07:17:31.142Z,13.50
2022-08-03T07:19:58.402Z,11.75
2022-08-03T07:22:25.339Z,14.25
2022-08-03T07:24:52.194Z,14.73
2022-08-03T07:27:19.014Z,13.70
2022-08-03T07:29:45.792Z,15.35
2022-08-03T07:32:12.633Z,14.73
2022-08-03T07:34:39.368Z,13.77
2022-08-03T07:37:06.238Z,14.43
2022-08-03T07:39:33.053Z,13.65
2022-08-03T07:41:59.836Z,14.38
2022-08-03T07:44:26.602Z,14.13
2022-08-03T07:46:53.539Z,13.70
2022-08-03T07:49:20.526Z,13.60
2022-08-03T07:52:07.918Z,12.80
2022-08-03T07:54:34.679Z,12.40
2022-08-03T07:57:01.498Z,13.00
2022-08-03T07:59:28.462Z,13.02
2022-08-03T08:02:15.385Z,14.10
2022-08-03T08:04:42.456Z,13.15
2022-08-03T08:07:09.305Z,14.60
2022-08-03T08:09:36.254Z,13.55
2022-08-03T08:12:03.387Z,12.55
2022-08-03T08:14:42.701Z,13.93
2022-08-03T08:17:09.496Z,12.52
2022-08-03T08:19:37.514Z,15.18
2022-08-03T08:22:10.638Z,13.70
2022-08-03T08:24:38.338Z,12.85
2022-08-03T08:27:06.310Z,14.07
2022-08-03T08:29:33.757Z,14.30
2022-08-03T08:32:01.628Z,11.77
2022-08-03T08:34:28.420Z,12.00
2022-08-03T08:37:02.382Z,12.38
2022-08-03T08:39:29.136Z,13.15
2022-08-03T08:41:55.905Z,12.32
2022-08-03T08:44:22.793Z,12.43
2022-08-03T08:46:50.839Z,12.73
2022-08-03T08:49:21.354Z,13.63
2022-08-03T08:52:00.429Z,12.80
2022-08-03T08:54:29.784Z,14.20
2022-08-03T08:57:01.493Z,12.68
2022-08-03T08:59:48.028Z,12.73
2022-08-03T09:02:15.834Z,12.70
2022-08-03T09:04:43.066Z,13.40
2022-08-03T09:07:19.619Z,13.85
2022-08-03T09:10:12.013Z,12.80
2022-08-03T09:12:44.075Z,12.02
2022-08-03T09:15:31.563Z,11.35
2022-08-03T09:18:03.075Z,12.13
2022-08-03T09:20:32.845Z,13.52
2022-08-03T09:26:00.079Z,12.20
2022-08-03T09:29:00.435Z,13.10
2022-08-03T09:31:36.639Z,12.23
2022-08-03T09:34:14.355Z,12.70
2022-08-03T09:36:45.102Z,12.90
2022-08-03T09:39:15.103Z,12.85
2022-08-03T09:41:48.586Z,12.98
2022-08-03T09:44:25.770Z,12.50
2022-08-03T09:46:56.449Z,14.38
2022-08-03T09:49:24.952Z,14.80
2022-08-03T09:52:32.045Z,14.93
2022-08-03T09:54:40.369Z,11.55
2022-08-03T09:57:07.190Z,13.20
2022-08-03T09:59:34.613Z,13.90
2022-08-03T10:02:02.106Z,13.07
2022-08-03T10:04:29.228Z,14.13
2022-08-03T10:07:04.151Z,13.27
2022-08-03T10:09:31.065Z,12.82
2022-08-03T10:12:00.052Z,15.50
2022-08-03T10:14:30.553Z,13.35
2022-08-03T10:16:57.305Z,12.82
2022-08-03T10:19:25.736Z,12.23
2022-08-03T10:21:58.130Z,12.88
2022-08-03T10:24:27.417Z,11.38
2022-08-03T10:27:01.589Z,9.88
2022-08-03T10:29:29.697Z,10.18
2022-08-03T10:31:59.104Z,9.77
2022-08-03T10:34:35.637Z,12.45
2022-08-03T10:37:08.514Z,11.77
2022-08-03T10:39:36.432Z,13.38
2022-08-03T10:42:05.778Z,15.57
2022-08-03T10:44:42.853Z,12.65
2022-08-03T10:47:10.680Z,13.32
2022-08-03T10:49:38.367Z,11.07
2022-08-03T10:52:13.865Z,12.23
2022-08-03T10:55:11.394Z,10.25
2022-08-03T10:57:46.528Z,10.93
2022-08-03T11:00:21.193Z,12.07
2022-08-03T11:03:14.782Z,12.38
2022-08-03T11:05:41.501Z,12.18
2022-08-03T11:08:29.031Z,13.23
2022-08-03T11:10:58.755Z,12.90
2022-08-03T11:16:01.610Z,8.88
2022-08-03T11:18:30.297Z,10.88
2022-08-03T11:20:59.872Z,10.23
2022-08-03T11:24:02.688Z,10.07
2022-08-03T11:26:34.137Z,10.43
2022-08-03T11:29:31.950Z,8.85
2022-08-03T11:31:59.111Z,8.95
2022-08-03T11:34:26.751Z,9.63
2022-08-03T11:37:24.090Z,8.45
2022-08-03T11:39:55.058Z,9.55
2022-08-03T11:42:24.919Z,8.63
2022-08-03T11:44:53.603Z,7.78
2022-08-03T11:47:26.061Z,8.13
2022-08-03T11:49:57.589Z,11.23
2022-08-03T11:52:27.110Z,8.75
2022-08-03T11:54:57.069Z,9.10
2022-08-03T11:59:19.290Z,9.27
2022-08-03T12:00:40.748Z,8.82
2022-08-03T12:03:11.964Z,11.02
2022-08-03T12:05:51.297Z,7.78
2022-08-03T12:08:39.744Z,8.50
2022-08-03T12:11:09.378Z,9.77
2022-08-03T12:16:37.186Z,9.45
2022-08-03T12:19:07.006Z,9.68
2022-08-03T12:21:34.073Z,10.50
2022-08-03T12:24:03.488Z,8.23
2022-08-03T12:26:43.534Z,9.52
2022-08-03T12:29:18.537Z,11.00
2022-08-03T12:31:45.747Z,11.30
2022-08-03T12:34:13.755Z,9.80
2022-08-03T12:36:56.285Z,9.70
2022-08-03T12:39:25.066Z,9.20
2022-08-03T12:41:55.775Z,10.05
2022-08-03T12:44:36.435Z,10.85
2022-08-03T12:47:04.646Z,10.10
2022-08-03T12:49:46.361Z,8.55
2022-08-03T12:52:13.356Z,8.30
2022-08-03T12:54:40.177Z,7.90
2022-08-03T12:57:15.706Z,7.40
2022-08-03T12:59:53.448Z,8.40
2022-08-03T13:02:26.258Z,7.88
2022-08-03T13:04:54.834Z,6.53
2022-08-03T13:07:22.973Z,6.18
2022-08-03T13:09:55.006Z,7.20
2022-08-03T13:12:30.037Z,7.47
2022-08-03T13:14:59.557Z,6.45
2022-08-03T13:19:53.869Z,6.65
2022-08-03T13:22:30.459Z,7.38
2022-08-03T13:24:57.805Z,6.32
2022-08-03T13:28:03.188Z,5.80
2022-08-03T13:30:13.007Z,6.68
2022-08-03T13:32:39.850Z,7.50
2022-08-03T13:35:08.016Z,6.97
2022-08-03T13:37:36.130Z,7.35
2022-08-03T13:40:06.602Z,6.75
2022-08-03T13:42:34.966Z,7.30
2022-08-03T13:45:02.986Z,6.50
2022-08-03T13:47:30.039Z,6.18
2022-08-03T13:50:01.151Z,6.35
2022-08-03T13:52:38.644Z,7.90
2022-08-03T13:55:07.067Z,6.45
2022-08-03T13:58:03.079Z,6.28
2022-08-03T14:00:29.302Z,8.77
2022-08-03T14:03:03.986Z,9.43
2022-08-03T14:05:33.168Z,8.27
2022-08-03T14:08:05.896Z,7.03
2022-08-03T14:10:37.845Z,8.50
2022-08-03T14:13:05.235Z,9.18
2022-08-03T14:15:37.424Z,7.93
2022-08-03T14:18:05.118Z,8.05
2022-08-03T14:20:38.897Z,8.73
2022-08-03T14:23:17.976Z,7.60
2022-08-03T14:25:51.629Z,6.70
2022-08-03T14:28:23.323Z,8.93
2022-08-03T14:30:57.285Z,8.95
2022-08-03T14:33:25.023Z,7.95
2022-08-03T14:35:52.478Z,7.78
2022-08-03T14:38:19.325Z,7.32
2022-08-03T14:40:46.795Z,8.40
2022-08-03T14:43:14.037Z,7.13
2022-08-03T14:45:41.362Z,7.63
2022-08-03T14:50:26.547Z,6.88
2022-08-03T14:50:56.895Z,8.07
2022-08-03T14:53:24.580Z,8.80
2022-08-03T14:55:52.956Z,7.72
2022-08-03T14:58:22.051Z,8.88
2022-08-03T15:00:50.830Z,8.60
2022-08-03T15:03:21.638Z,8.50
2022-08-03T15:05:48.570Z,9.98
2022-08-03T15:08:15.770Z,10.15
2022-08-03T15:10:44.860Z,12.02
2022-08-03T15:13:13.247Z,8.90
2022-08-03T15:15:41.132Z,10.60
2022-08-03T15:18:08.189Z,11.13
2022-08-03T15:20:50.773Z,7.90
2022-08-03T15:23:18.837Z,8.25
2022-08-03T15:26:29.292Z,8.23
2022-08-03T15:28:33.898Z,7.18
2022-08-03T15:31:01.885Z,9.35
2022-08-03T15:33:29.458Z,9.15
2022-08-03T15:35:57.193Z,8.88
2022-08-03T15:38:25.830Z,9.85
2022-08-03T15:40:57.147Z,8.32
2022-08-03T15:43:24.259Z,9.30
2022-08-03T15:46:19.167Z,9.27
2022-08-03T15:48:38.876Z,11.48
2022-08-03T15:51:06.254Z,8.90
2022-08-03T15:53:33.810Z,9.43
2022-08-03T15:56:03.354Z,8.13
2022-08-03T15:59:03.690Z,7.05
2022-08-03T16:01:21.552Z,8.65
2022-08-03T16:03:48.804Z,5.43
2022-08-03T16:06:16.035Z,4.53
2022-08-03T16:08:42.886Z,5.20
2022-08-03T16:11:09.890Z,6.78
2022-08-03T16:14:13.096Z,4.65
2022-08-03T16:16:23.692Z,5.32
2022-08-03T16:18:50.524Z,4.60
2022-08-03T16:21:19.340Z,5.07
2022-08-03T16:26:14.817Z,4.40
2022-08-03T16:28:41.658Z,3.83
2022-08-03T16:31:09.325Z,3.67
2022-08-03T16:33:36.616Z,6.72
2022-08-03T16:36:03.763Z,4.03
2022-08-03T16:38:30.774Z,3.90
2022-08-03T16:40:57.570Z,4.35
2022-08-03T16:43:24.923Z,3.88
2022-08-03T16:45:52.179Z,3.72
2022-08-03T16:48:19.918Z,7.25
2022-08-03T16:50:47.508Z,3.38
2022-08-03T16:53:16.552Z,4.78
2022-08-03T16:55:53.193Z,4.80
2022-08-03T16:58:41.344Z,2.95
2022-08-03T17:01:21.600Z,3.03
2022-08-03T17:04:01.972Z,3.70
2022-08-03T17:06:35.014Z,3.20
2022-08-03T17:09:08.834Z,3.45
2022-08-03T17:11:39.036Z,4.25
2022-08-03T17:14:12.112Z,3.25
2022-08-03T17:16:39.160Z,3.38
2022-08-03T17:19:20.520Z,3.90
2022-08-03T17:21:55.888Z,3.27
2022-08-03T17:24:27.839Z,3.47
2022-08-03T17:26:56.034Z,3.60
2022-08-03T17:29:25.192Z,3.50
2022-08-03T17:31:56.874Z,3.80
2022-08-03T17:34:26.495Z,3.10
2022-08-03T17:37:17.794Z,4.65
2022-08-03T17:39:58.225Z,6.25
2022-08-03T17:42:30.598Z,3.90
2022-08-03T17:45:02.296Z,3.38
2022-08-03T17:47:41.921Z,3.15
2022-08-03T17:50:25.302Z,3.92
2022-08-03T17:53:01.322Z,4.18
2022-08-03T17:55:57.371Z,3.90
2022-08-03T17:58:54.949Z,4.43
2022-08-03T18:02:06.094Z,5.30
2022-08-03T18:04:42.372Z,4.28
2022-08-03T18:07:12.905Z,3.63
2022-08-03T18:10:04.987Z,3.22
2022-08-03T18:12:51.895Z,3.28
2022-08-03T18:15:26.594Z,2.63
2022-08-03T18:18:01.989Z,4.80
2022-08-03T18:20:40.594Z,4.75
2022-08-03T18:23:10.395Z,3.00
2022-08-03T18:25:45.645Z,3.33
2022-08-03T18:28:16.449Z,4.30
2022-08-03T18:34:16.703Z,4.45
2022-08-03T18:36:29.465Z,6.70
2022-08-03T18:38:58.629Z,4.30
2022-08-03T18:41:33.323Z,3.50
2022-08-03T18:44:08.265Z,4.22
2022-08-03T18:46:50.012Z,4.53
2022-08-03T18:49:46.872Z,4.35
2022-08-03T18:52:40.221Z,4.65
2022-08-03T18:55:20.280Z,5.72
2022-08-03T18:58:15.901Z,4.45
2022-08-03T19:04:05.233Z,5.68
2022-08-03T19:06:36.181Z,5.07
2022-08-03T19:09:09.517Z,7.25
2022-08-03T19:12:13.105Z,5.03
2022-08-03T19:15:00.301Z,4.18
2022-08-03T19:17:33.572Z,3.70
2022-08-03T19:20:05.951Z,4.72
2022-08-03T19:22:34.440Z,4.03
2022-08-03T19:25:04.567Z,3.70
2022-08-03T19:27:35.453Z,5.22
2022-08-03T19:30:20.010Z,5.45
2022-08-03T19:32:54.159Z,4.18
2022-08-03T19:35:46.667Z,3.38
2022-08-03T19:38:09.150Z,3.83
2022-08-03T19:40:42.080Z,5.03
2022-08-03T19:43:26.637Z,3.30
2022-08-03T19:46:08.193Z,5.15
2022-08-03T19:48:37.778Z,3.47
2022-08-03T19:51:12.425Z,4.22
2022-08-03T19:53:43.183Z,3.92
2022-08-03T19:56:14.425Z,4.18
2022-08-03T19:58:43.385Z,4.32
2022-08-03T20:01:19.685Z,5.20
2022-08-03T20:03:49.730Z,6.85
2022-08-03T20:06:17.781Z,3.70
2022-08-03T20:08:44.946Z,4.38
2022-08-03T20:11:15.679Z,4.32
2022-08-03T20:13:48.358Z,3.90
2022-08-03T20:16:15.209Z,5.55
2022-08-03T20:18:42.920Z,4.30
2022-08-03T20:21:15.677Z,4.47
2022-08-03T20:24:01.630Z,4.90
2022-08-03T20:26:31.220Z,4.47
2022-08-03T20:29:09.077Z,5.70
2022-08-03T20:31:37.799Z,5.38
2022-08-03T20:34:06.408Z,5.25
2022-08-03T20:36:33.265Z,4.57
2022-08-03T20:39:00.206Z,5.13
2022-08-03T20:41:27.132Z,4.65
2022-08-03T20:43:54.515Z,4.30
2022-08-03T20:46:35.302Z,4.90
2022-08-03T20:49:08.653Z,4.93
2022-08-03T20:51:49.045Z,4.43
2022-08-03T20:54:28.790Z,4.80
2022-08-03T20:56:58.315Z,5.22
2022-08-03T20:59:36.928Z,5.00
2022-08-03T21:02:19.244Z,4.72
2022-08-03T21:04:47.437Z,4.70
2022-08-03T21:07:22.956Z,4.93
2022-08-03T21:09:57.163Z,5.32
2022-08-03T21:12:54.426Z,5.28
2022-08-03T21:13:01.160Z,3.92
2022-08-03T21:16:06.919Z,5.15
2022-08-03T21:18:18.386Z,5.55
2022-08-03T21:20:46.587Z,5.10
2022-08-03T21:23:40.285Z,5.03
2022-08-03T21:26:01.290Z,5.88
2022-08-03T21:28:28.222Z,4.65
2022-08-03T21:30:55.068Z,7.07
2022-08-03T21:33:26.809Z,6.70
2022-08-03T21:35:53.911Z,5.38
2022-08-03T21:38:20.961Z,5.75
2022-08-03T21:40:57.995Z,4.45
2022-08-03T21:43:24.757Z,4.30
2022-08-03T21:46:12.299Z,5.68
2022-08-03T21:48:41.554Z,4.35
2022-08-03T21:51:12.348Z,5.63
2022-08-03T21:54:03.257Z,4.90
2022-08-03T21:56:30.696Z,4.30
2022-08-03T21:59:04.789Z,4.38
2022-08-03T22:01:35.552Z,3.72
2022-08-03T22:04:07.080Z,3.70
2022-08-03T22:06:35.072Z,4.45
2022-08-03T22:09:01.917Z,4.45
2022-08-03T22:11:29.359Z,4.57
2022-08-03T22:13:56.193Z,5.30
2022-08-03T22:16:23.206Z,4.70
2022-08-03T22:18:49.998Z,7.60
2022-08-03T22:21:27.783Z,4.80
2022-08-03T22:24:06.131Z,4.70
2022-08-03T22:26:35.882Z,3.72
2022-08-03T22:29:08.062Z,4.53
2022-08-03T22:31:57.996Z,3.67
2022-08-03T22:34:26.767Z,3.50
2022-08-03T22:37:01.009Z,4.35
2022-08-03T22:39:29.481Z,4.53
2022-08-03T22:42:00.165Z,3.72
2022-08-03T22:44:27.908Z,2.55
2022-08-03T22:46:55.803Z,3.75
2022-08-03T22:49:23.122Z,3.70
2022-08-03T22:51:52.428Z,3.10
2022-08-03T22:54:19.744Z,3.95
2022-08-03T22:56:47.301Z,2.58
2022-08-03T22:59:40.048Z,3.30
2022-08-03T23:02:15.164Z,4.78
2022-08-03T23:04:55.360Z,3.42
2022-08-03T23:07:30.509Z,3.13
2022-08-03T23:09:58.639Z,3.53
2022-08-03T23:12:25.528Z,3.67
2022-08-03T23:14:55.565Z,5.03
2022-08-03T23:17:23.976Z,3.83
2022-08-03T23:19:52.865Z,3.42
2022-08-03T23:22:30.370Z,5.13
2022-08-03T23:24:59.084Z,2.70
2022-08-03T23:27:28.016Z,2.80
2022-08-03T23:29:58.379Z,3.63
2022-08-03T23:32:30.709Z,4.68
2022-08-03T23:35:19.186Z,2.58
2022-08-03T23:38:04.257Z,3.35
2022-08-03T23:40:34.923Z,3.50
2022-08-03T23:43:02.781Z,3.35
2022-08-03T23:45:34.679Z,3.63
2022-08-03T23:48:01.503Z,3.67
2022-08-03T23:50:35.217Z,4.03
2022-08-03T23:53:39.903Z,3.38
2022-08-03T23:56:19.676Z,3.38
2022-08-03T23:59:27.905Z,3.42
